createdAt,value
2018-06-11T16:03:12.690Z,52.20
2018-06-11T16:05:44.809Z,53.10
2018-06-11T16:08:20.282Z,53.00
2018-06-11T16:11:14.043Z,53.30
2018-06-11T16:13:57.965Z,52.90
2018-06-11T16:16:32.588Z,53.60
2018-06-11T16:19:04.687Z,54.00
2018-06-11T16:50:46.484Z,53.90
2018-06-11T16:53:17.165Z,54.40
2018-06-11T16:55:47.935Z,55.00
2018-06-11T16:58:18.668Z,55.40
2018-06-11T17:03:19.880Z,55.60
2018-06-11T17:05:50.677Z,55.70
2018-06-11T17:08:21.578Z,55.90
2018-06-11T18:01:44.138Z,55.90
2018-06-11T18:04:15.301Z,59.20
2018-06-11T18:06:46.694Z,59.70
2018-06-11T18:09:17.400Z,60.80
2018-06-11T18:16:48.540Z,61.30
2018-06-11T18:19:20.305Z,62.00
2018-06-11T18:21:52.850Z,63.00
2018-06-11T18:24:23.748Z,63.30
2018-06-11T18:29:24.531Z,64.80
2018-06-11T18:31:55.513Z,64.90
2018-06-11T18:34:26.274Z,65.30
2018-06-11T18:36:56.994Z,65.80
2018-06-11T18:39:27.729Z,66.10
2018-06-11T18:44:28.563Z,66.80
2018-06-11T18:46:59.240Z,66.90
2018-06-11T18:49:29.997Z,67.50
2018-06-11T18:52:00.858Z,68.90
2018-06-11T18:54:31.814Z,68.70
2018-06-11T18:57:02.746Z,68.80
2018-06-11T18:59:34.251Z,69.40
2018-06-11T19:02:05.272Z,68.90
2018-06-11T19:04:36.293Z,68.90
2018-06-11T19:07:07.301Z,69.10
2018-06-11T19:09:38.173Z,68.80
2018-06-11T19:12:09.124Z,69.00
2018-06-11T19:14:40.101Z,69.80
2018-06-11T19:17:11.120Z,69.70
2018-06-11T19:19:42.006Z,69.80
2018-06-11T19:22:12.967Z,69.80
2018-06-11T19:27:14.293Z,70.60
2018-06-11T19:29:45.340Z,71.00
2018-06-11T19:32:16.267Z,71.30
2018-06-11T19:34:47.223Z,70.90
2018-06-11T19:37:18.129Z,70.50
2018-06-11T19:39:49.022Z,70.40
2018-06-11T19:42:19.855Z,70.20
2018-06-11T19:44:55.048Z,70.30
2018-06-11T19:47:25.933Z,70.40
2018-06-11T19:49:56.820Z,70.90
2018-06-11T19:52:30.256Z,71.60
2018-06-11T19:55:01.924Z,71.80
2018-06-11T19:57:33.028Z,72.20
2018-06-11T20:00:03.964Z,72.80
2018-06-11T20:02:34.815Z,72.90
2018-06-11T20:05:21.891Z,73.10
2018-06-11T21:22:20.834Z,73.90
2018-06-11T21:24:54.238Z,79.90
2018-06-11T21:27:26.227Z,80.00
2018-06-11T21:29:57.126Z,80.20
2018-06-11T21:34:58.313Z,80.30
2018-06-11T21:37:29.101Z,80.90
2018-06-11T21:40:02.390Z,81.20
2018-06-11T21:42:33.359Z,81.20
2018-06-11T21:45:04.230Z,81.30
2018-06-11T21:47:35.086Z,81.60
2018-06-11T21:50:05.982Z,82.10
2018-06-11T21:52:36.922Z,82.40
2018-06-11T21:55:07.882Z,82.70
2018-06-11T21:57:38.686Z,83.10
2018-06-11T22:00:09.804Z,83.30
2018-06-11T22:02:46.430Z,83.50
2018-06-11T22:05:17.330Z,83.70
2018-06-11T22:07:48.282Z,83.90
2018-06-11T22:10:19.065Z,84.40
2018-06-11T22:12:49.965Z,84.60
2018-06-11T22:15:20.839Z,84.90
2018-06-11T22:17:51.719Z,85.00
2018-06-11T22:25:23.463Z,84.70
2018-06-11T22:27:54.374Z,84.50
2018-06-11T22:30:25.269Z,84.90
2018-06-11T22:35:26.474Z,85.10
2018-06-11T22:37:57.376Z,85.60
2018-06-11T22:40:28.360Z,85.40
2018-06-11T22:42:59.348Z,85.40
2018-06-11T22:45:31.333Z,85.60
2018-06-11T22:48:03.130Z,86.00
2018-06-11T22:50:33.952Z,85.80
2018-06-11T22:53:04.782Z,86.00
2018-06-11T22:55:35.674Z,86.00
2018-06-11T22:58:06.432Z,86.00
2018-06-11T23:03:07.549Z,86.60
2018-06-11T23:05:38.466Z,87.00
2018-06-11T23:08:09.221Z,87.40
2018-06-11T23:10:40.100Z,87.70
2018-06-11T23:13:10.957Z,88.00
2018-06-11T23:15:41.784Z,88.60
2018-06-11T23:18:12.551Z,89.00
2018-06-11T23:20:44.475Z,89.30
2018-06-11T23:23:15.461Z,89.30
2018-06-11T23:25:46.291Z,89.60
2018-06-11T23:28:17.158Z,89.80
2018-06-11T23:30:47.864Z,89.80
2018-06-11T23:33:18.687Z,89.80
2018-06-11T23:35:49.481Z,90.00
2018-06-11T23:40:50.628Z,89.90
2018-06-11T23:43:21.357Z,89.80
2018-06-11T23:45:52.125Z,89.70
2018-06-11T23:48:22.949Z,89.90
2018-06-11T23:50:53.691Z,90.10
2018-06-11T23:53:24.407Z,90.10
2018-06-11T23:55:57.007Z,90.20
2018-06-11T23:58:27.815Z,90.10
